createdAt,value
2024-02-13T00:06:11.748Z,2.97
2024-02-13T00:16:18.550Z,2.80
2024-02-13T00:26:21.674Z,2.40
2024-02-13T00:36:25.890Z,2.65
2024-02-13T00:46:28.640Z,2.83
2024-02-13T00:56:32.783Z,3.35
2024-02-13T01:06:36.332Z,3.80
2024-02-13T01:16:41.617Z,4.07
2024-02-13T01:26:45.117Z,4.28
2024-02-13T01:36:49.438Z,5.20
2024-02-13T01:46:53.559Z,4.50
2024-02-13T01:56:58.135Z,5.80
2024-02-13T02:07:00.996Z,6.18
2024-02-13T02:17:11.869Z,6.97
2024-02-13T02:27:16.693Z,6.50
2024-02-13T02:37:20.474Z,6.78
2024-02-13T02:47:24.674Z,6.30
2024-02-13T02:57:28.047Z,6.78
2024-02-13T03:07:32.938Z,6.53
2024-02-13T03:17:38.561Z,6.25
2024-02-13T03:27:42.991Z,6.35
2024-02-13T03:37:45.819Z,7.97
2024-02-13T03:47:49.971Z,6.47
2024-02-13T03:57:53.696Z,7.88
2024-02-13T04:07:57.820Z,8.30
2024-02-13T04:18:00.791Z,8.73
2024-02-13T04:28:05.413Z,8.73
2024-02-13T04:38:10.255Z,10.27
2024-02-13T04:48:14.665Z,10.70
2024-02-13T04:58:21.273Z,9.45
2024-02-13T05:08:25.402Z,9.73
2024-02-13T05:18:28.268Z,10.65
2024-02-13T05:28:33.324Z,9.75
2024-02-13T05:38:38.992Z,9.45
2024-02-13T05:48:44.094Z,10.68
2024-02-13T05:58:47.193Z,10.45
2024-02-13T06:08:52.320Z,10.10
2024-02-13T06:18:55.348Z,9.35
2024-02-13T06:28:59.695Z,11.32
2024-02-13T06:39:04.188Z,12.43
2024-02-13T06:49:08.726Z,12.68
2024-02-13T06:59:11.864Z,12.75
2024-02-13T07:09:16.508Z,13.00
2024-02-13T07:19:19.598Z,13.10
2024-02-13T07:29:23.934Z,12.70
2024-02-13T07:39:27.915Z,13.18
2024-02-13T07:49:33.588Z,8.95
2024-02-13T07:59:36.587Z,12.95
2024-02-13T08:09:41.467Z,11.68
2024-02-13T08:19:44.311Z,11.82
2024-02-13T08:29:48.789Z,11.50
2024-02-13T08:39:51.849Z,10.63
2024-02-13T08:49:56.210Z,10.63
2024-02-13T08:59:59.196Z,10.35
2024-02-13T09:10:03.484Z,9.95
2024-02-13T09:20:07.945Z,10.85
2024-02-13T09:30:13.476Z,9.80
2024-02-13T09:40:16.856Z,10.43
2024-02-13T09:50:21.280Z,9.80
2024-02-13T10:00:24.506Z,9.73
2024-02-13T10:10:30.241Z,8.52
2024-02-13T10:20:33.164Z,8.80
2024-02-13T10:30:39.006Z,8.85
2024-02-13T10:40:44.552Z,6.10
2024-02-13T10:50:52.090Z,5.97
2024-02-13T11:00:57.556Z,6.35
2024-02-13T11:11:04.803Z,6.18
2024-02-13T11:21:10.127Z,6.35
2024-02-13T11:31:18.263Z,4.80
2024-02-13T11:41:21.351Z,5.20
2024-02-13T11:51:25.626Z,5.45
2024-02-13T12:01:29.111Z,5.32
2024-02-13T12:11:33.481Z,5.00
2024-02-13T12:21:36.325Z,5.10
2024-02-13T12:31:40.612Z,5.38
2024-02-13T12:41:43.489Z,4.47
2024-02-13T12:51:48.168Z,4.00
2024-02-13T13:01:52.046Z,4.55
2024-02-13T13:11:56.764Z,3.88
2024-02-13T13:21:59.937Z,4.40
2024-02-13T13:32:06.540Z,4.20
2024-02-13T13:42:11.036Z,3.78
2024-02-13T13:52:15.376Z,3.47
2024-02-13T14:02:18.292Z,2.90
2024-02-13T14:12:22.934Z,3.50
2024-02-13T14:22:27.957Z,3.60
2024-02-13T14:32:32.331Z,2.88
2024-02-13T14:42:35.776Z,2.90
2024-02-13T14:52:40.650Z,2.92
2024-02-13T15:02:43.826Z,3.40
2024-02-13T15:12:48.160Z,3.33
2024-02-13T15:22:51.167Z,3.70
2024-02-13T15:32:55.476Z,3.90
2024-02-13T15:43:23.999Z,3.75
2024-02-13T15:53:28.378Z,4.10
2024-02-13T16:03:36.241Z,4.30
2024-02-13T16:13:40.042Z,3.40
2024-02-13T16:23:44.186Z,3.42
2024-02-13T16:33:47.055Z,4.22
2024-02-13T16:43:51.618Z,3.80
2024-02-13T16:53:55.281Z,4.93
2024-02-13T17:04:01.866Z,8.02
2024-02-13T17:14:05.436Z,6.05
2024-02-13T17:24:11.001Z,7.07
2024-02-13T17:34:13.997Z,6.03
2024-02-13T17:44:18.222Z,5.13
2024-02-13T17:54:20.978Z,4.60
2024-02-13T18:04:26.505Z,4.20
2024-02-13T18:14:29.731Z,4.95
2024-02-13T18:24:34.067Z,4.10
2024-02-13T18:34:36.834Z,4.03
2024-02-13T18:44:41.041Z,4.05
2024-02-13T18:54:45.729Z,3.40
2024-02-13T19:04:49.919Z,3.70
2024-02-13T19:14:53.181Z,3.63
2024-02-13T19:24:57.753Z,3.40
2024-02-13T19:35:00.544Z,2.67
2024-02-13T19:45:05.773Z,2.83
2024-02-13T19:55:10.228Z,2.67
2024-02-13T20:05:14.327Z,2.70
2024-02-13T20:15:17.773Z,1.67
2024-02-13T20:25:22.131Z,2.10
2024-02-13T20:35:25.439Z,2.40
2024-02-13T20:45:31.204Z,2.53
2024-02-13T20:55:34.047Z,1.73
2024-02-13T21:05:39.348Z,2.15
2024-02-13T21:15:42.211Z,1.70
2024-02-13T21:25:46.444Z,1.75
2024-02-13T21:35:49.895Z,2.47
2024-02-13T21:45:54.284Z,2.08
2024-02-13T21:55:57.023Z,3.55
2024-02-13T22:06:01.206Z,2.10
2024-02-13T22:16:05.224Z,3.15
2024-02-13T22:26:10.473Z,2.85
2024-02-13T22:36:22.469Z,2.13
2024-02-13T22:46:26.846Z,2.80
2024-02-13T22:56:29.979Z,2.35
2024-02-13T23:06:34.303Z,2.28
2024-02-13T23:16:37.208Z,2.92
2024-02-13T23:26:41.782Z,3.05
2024-02-13T23:36:44.752Z,3.50
2024-02-13T23:46:48.820Z,3.60
2024-02-13T23:56:51.655Z,3.75
